Impacts METAR Board
IDs:

KSAT - San Antonio Intl, TX, US

Updated at: 2000 UTC 13 Aug 2020
Potential Impact None Slight Moderate High
Time 13/08Z 13/09Z 13/10Z 13/11Z 13/12Z 13/13Z 13/14Z 13/15Z 13/16Z 13/17Z 13/18Z 13/19Z 13/20Z
Temp81 80 79 79 78 79 81 85 88 91 94 96 100
Dewpt72 73 73 73 73 73 72 71 70 68 67 66 64
Altim29.97 29.98 29.98 29.98 29.98 30.00 30.02 30.02 30.02 30.01 30.00 29.97 29.94
VIS10 10 10 10 10 10 10 10 10 10 10 10 10
CIG-- -- -- -- -- -- -- -- -- -- -- -- --
CoverCLRCLRSCTFEWFEWSCTSCTSCTSCTFEWFEWFEWFEW
FltCatVFRVFRVFRVFRVFRVFRVFRVFRVFRVFRVFRVFRVFR
WX--------------------------
WDir180170170170170190170170190180210180130
WSpd6 6 6 4 7 7 7 9 8 10 7 10 9
WGst-- -- -- -- -- -- -- -- -- -- 21 -- 18
R04/22
XWnd -4 -5 -5 -3 -5 -4 -5 -7 -4 -7 -1 -7 -9
XGst -- -- -- -- -- -- -- -- -- -- -4 -- -18
HWnd -5 -4 -4 -3 -4 -6 -4 -6 -7 -8 -7 -8 0
HGst -- -- -- -- -- -- -- -- -- -- -21 -- 0
R12/30
XWnd -4 -4 -4 -2 -4 -6 -4 -6 -7 -7 -7 -7 0
XGst -- -- -- -- -- -- -- -- -- -- -21 -- 1
HWnd 4 5 5 3 6 4 6 7 4 7 1 7 9
HGst -- -- -- -- -- -- -- -- -- -- 4 -- 18
Raw hourly METARs
KSAT 130751Z 18006KT 10SM CLR 27/22 A2997 RMK AO2 SLP128 T02720222
KSAT 130851Z 17006KT 10SM CLR 27/23 A2998 RMK AO2 SLP131 T02670228 55001
KSAT 130951Z 17006KT 10SM SCT015 26/23 A2998 RMK AO2 SLP132 T02610228
KSAT 131051Z 17004KT 10SM FEW016 26/23 A2998 RMK AO2 SLP132 T02610228
KSAT 131151Z 17007KT 10SM FEW017 FEW250 26/23 A2998 RMK AO2 SLP133 T02560228 10289 20256 51002
KSAT 131251Z 19007KT 10SM FEW017 SCT250 26/23 A3000 RMK AO2 SLP139 T02610228
KSAT 131351Z 17007KT 10SM FEW022 SCT250 27/22 A3002 RMK AO2 SLP145 T02720222
KSAT 131451Z 17009KT 10SM FEW033 SCT250 29/22 A3002 RMK AO2 SLP146 T02940217 51013
KSAT 131551Z 19008KT 10SM FEW035 SCT250 31/21 A3002 RMK AO2 SLP146 T03110211
KSAT 131651Z 18010KT 10SM FEW250 33/20 A3001 RMK AO2 SLP143 T03280200
KSAT 131751Z 21007G21KT 10SM FEW250 34/19 A3000 RMK AO2 SLP137 T03440194 10350 20256 58009
KSAT 131851Z COR 18010KT 10SM FEW250 36/19 A2997 RMK AO2 SLP128 T03560189
KSAT 131951Z 13009G18KT 10SM FEW250 38/18 A2994 RMK AO2 SLP118 T03780178



Page loaded:  20:51 UTC  |   01:51 PM Pacific  |   02:51 PM Mountain  |   03:51 PM Central  |   04:51 PM Eastern

 

ADVISORIES

FORECASTS

FORECASTS

OBSERVATIONS

USER TOOLS

ABOUT US